Wild Peach Village, Texas
Current Conditions -  °F | °C
As of 9:30 PM on Saturday 22 Nov 2014 (Local Time) from KLBX Reporting Station
Thunderstorm Thunderstorm  
Wind Chill: 64°   Ceiling: 800
Heat Index: 64°   Visibility: 5mi
Dew Point: 64°   Wind: 9mph
Humidity: 100%   Direction: 250°WSW
Pressure: 29.79"   Gusts: NA
Location:  28.9272°N, 95.5834°W
Report Text: KLBX 230330Z AUTO 25008KT 220V280 5SM VCTS +RA BR BKN008 BKN020 OVC030 18/18 A2979 RMK AO2 LTG DSNT ALQDS P0009 T01780178
Loading
Personal Weather Stations






























Interactive Weather Map New forecast layout! Learn more

10-Day Weather Forecast

Advertisements
Track Severe Weather on mobile